AirNav   Pilot Hours Calculator
 
 1033 users online  

42M Thayer Memorial Airport
Thayer, Missouri, USA

GOING TO THAYER?


FAA INFORMATION EFFECTIVE 28 FEBRUARY 2019

Location

FAA Identifier: 42M
Lat/Long: 36-31-20.3750N / 091-34-21.0700W
36-31.339583N / 091-34.351167W
36.5223264 / -91.5725194
(estimated)
Elevation: 807.6 ft. / 246 m (estimated)
Variation: 03E (1985)
From city: 2 miles W of THAYER, MO
Time zone: UTC -6 (UTC -5 during Daylight Saving Time)
Zip code: 65791

Airport Operations

Airport use: Open to the public
Activation date: 04/1965
Control tower: no
ARTCC: MEMPHIS CENTER
FSS: COLUMBIA FLIGHT SERVICE STATION
NOTAMs facility: COU (NOTAM-D service available)
Attendance: UNATNDD
Wind indicator: yes
Segmented circle: no
Lights: TO ACTVT LIRL RWY 09/27 KEY 122.9 5 TIMES.
Beacon: white-green (lighted land airport)
ROTG BCN OTS INDEFLY. Operates sunset to sunrise.

Airport Communications

CTAF: 122.9

Nearby radio navigation aids

VOR radial/distance  VOR name  Freq  Var
ARGr306/38.8WALNUT RIDGE VORTAC114.5004E

 
NDB name  Hdg/Dist  Freq  Var  ID
LAWRENCE COUNTY300/36.622701ETNZ - -. --..

Airport Services

Parking: tiedowns

Runway Information

Runway 9/27

Dimensions: 3885 x 49 ft. / 1184 x 15 m
WIDTH VARIANCE 49-50 FT.
Surface: asphalt, in good condition
Runway edge lights: non-standard
RY 09/27 NSTD LIRL; RY EDGE & THLD LGTS PLACED 15 FT OFF EDGES OF PAVEMENT.
RUNWAY 9  RUNWAY 27
Latitude: 36-31.370833N36-31.308333N
Longitude: 091-34.746000W091-33.956333W
Elevation: 807.6 ft.760.5 ft.
Gradient: 1.2% UP
Traffic pattern: leftright
Markings: basic, in good conditionbasic, in good condition
Obstructions: 57 ft. trees, 225 ft. from runway, 125 ft. right of centerline
+1-15 FT BRUSH 0-10 FT FM RY END 75 FT L, +1-3 FT GND 50-95 FT FM RY END 40-125 FT R.
31 ft. trees, 235 ft. from runway, 60 ft. right of centerline, 1:1 slope to clear
RWY 27 +1 FT FENCE 20 FT FM RY END L/R; 1-21 FT FENCE & BRUSH 65-80 FT FM RY END L/R.

Airport Ownership and Management from official FAA records

Ownership: Publicly-owned
Owner: CITY OF THAYER
PO BOX 76
THAYER, MO 65791
Phone 417-264-3921
Manager: CITY OF THAYER
PO BOX 76
THAYER, MO 65791
Phone 417-264-3921

Airport Operational Statistics

Aircraft based on the field: 5
Single engine airplanes: 5
    
Aircraft operations: avg 36/week *
81% transient general aviation
19% local general aviation
<1% military
* for 12-month period ending 31 December 2016

Additional Remarks

WILD ANIMALS ON RY AT EARLY & LATE HRS.
NTSD RY SAFETY AREAS BYD EACH RY END & ALONG RY EDGES; RY 09 END INCORRECT TERRAIN GRADIENTS & BRUSH; RY 27 END BRUSH, TREES, FENCE & POSTS. TALL BRUSH ALONG PAVEMENT EDGES.

Instrument Procedures

There are no published instrument procedures at 42M.

Some nearby airports with instrument procedures:

KCVK - Sharp County Regional Airport (15 nm S)
6M2 - Horseshoe Bend Airport (20 nm SW)
KUNO - West Plains Regional Airport (27 nm NW)
KMNF - Mountain View Airport (29 nm N)
42A - Melbourne Municipal Airport - John E Miller Field (30 nm SW)
 
Loc | Ops | Rwys | IFR | FBO | Links
Com | Nav | Svcs | Stats | Notes

Kansas City Aviation Department
 
Area around 42M (Thayer Memorial Airport)
 
Road maps at: MapQuest Bing Google
 
Aerial photo
WARNING: Photo may not be current or correct
Aerial photo of 42M (Thayer Memorial Airport)
Do you have a better or more recent aerial photo of Thayer Memorial Airport that you would like to share? If so, please send us your photo.

 
Sectional chart

 
Airport distance calculator
Flying to Thayer Memorial Airport? Find the distance to fly.

From to 42M

Sunrise and sunset
Times for 22-Mar-2019
 Local
(UTC-5)
 Zulu
(UTC)
Morning civil twilight06:4211:42
Sunrise07:0812:08
Sunset19:1900:19
Evening civil twilight19:4400:44

Current date and time
Zulu (UTC)  22-Mar-2019 22:37:10
Local (UTC-5)  22-Mar-2019 17:37:10
 
METAR
KUNO 
27nm NW 
222153Z AUTO 33005KT 10SM CLR 21/M01 A3011 RMK AO2 SLP196 T02061006
KARG 
40nm SE 
222156Z AUTO 14009KT 10SM CLR 21/03 A3010 RMK AO2 SLP194 T02060028
KBPK 
44nm W 
222153Z AUTO 27005KT 10SM CLR 20/M03 A3010 RMK AO2 SLP192 T02001033 TSNO
K4M9 
45nm E 
222215Z AUTO 24004KT 6SM HZ CLR 22/00 A3009 RMK AO2 PWINO
KFLP 
45nm W 
222156Z AUTO 29005KT 10SM CLR 21/M03 A3012 RMK AO2 SLP198 T02061028
KBVX 
48nm S 
222156Z AUTO VRB06KT 10SM CLR 21/M01 A3012 RMK AO2 SLP198 T02061011
TAF
KBPK 
44nm W 
221720Z 2218/2318 VRB03KT P6SM FEW250 FM231500 12008KT P6SM BKN250
NOTAMs
Click for the latest NOTAMs
NOTAMs are issued by the DoD/FAA and will open in a separate window not controlled by AirNav.

 

 
 

Would you like to see your business listed on this page?

 If your business provides an interesting product or service to pilots, flight crews, aircraft, or users of the Thayer Memorial Airport, you should consider listing it here.  To start the listing process, click on the button below
 
Add a business
 

Other Pages about Thayer Memorial Airport

Update a link
 
Copyright © AirNav, LLC. All rights reserved. Privacy Policy  Contact